ブリュッセル国際空港の過去48時間の天気

ブリュッセル国際空港 (Bruxelles National)

現在時刻: 4/15 07:52 CEST (4/15 05:52 UTC) 以下の時間は現地時間です。

過去48時間のMETAR気象情報
時間 風向 風速(m/s) 視程 気温(℃) 湿度(%) 気圧(hPa) 天気現象
15 07:20 静穏 0 10km以上 -1 100 1031
15 06:50 静穏 0 10km以上 0 93 1030
15 06:20 北北西 1 10km以上 0 93 1030
15 05:50 1 10km以上 0 93 1030
15 05:20 2 10km以上 0 86 1030
15 04:50 北北東 2 10km以上 0 93 1030
15 04:20 北北東 2 10km以上 0 93 1030
15 03:50 2 10km以上 0 93 1030
15 03:20 2 10km以上 0 93 1030
15 02:50 2 10km以上 1 86 1030
15 02:20 2 10km以上 1 86 1030
15 01:50 北北西 1 10km以上 1 86 1031
15 01:20 1 10km以上 1 86 1031
15 00:50 北東 1 10km以上 2 87 1031
15 00:20 1 10km以上 2 81 1031
14 23:50 2 10km以上 2 87 1031
14 23:20 北北東 3 10km以上 2 87 1031
14 22:50 北北東 4 10km以上 5 70 1031
14 22:20 北北東 4 10km以上 5 70 1030
14 21:50 北北東 3 10km以上 5 65 1030
14 21:20 北北東 4 10km以上 5 70 1030
14 20:50 北北東 4 10km以上 6 57 1030
14 20:20 3 10km以上 6 57 1029
14 19:50 2 10km以上 6 65 1029
14 19:20 北北東 4 10km以上 7 53 1029
14 18:50 北北東 5 10km以上 7 57 1029
14 18:20 4 10km以上 7 57 1029
14 17:50 北北東 6 10km以上 7 61 1030
14 17:20 北東 3 10km以上 8 53 1030 周辺でしゅう雨
14 16:50 東北東 4 10km以上 8 53 1030
14 16:20 北東 4 10km以上 8 49 1030 周辺でしゅう雨
14 15:50 東北東 2 10km以上 8 46 1030 周辺でしゅう雨
14 15:20 東北東 3 10km以上 9 40 1030 周辺でしゅう雨
14 14:50 北東 3 10km以上 8 49 1030 周辺でしゅう雨
14 14:20 不定 1 10km以上 10 40 1030
14 13:50 西北西 2 10km以上 9 40 1030
14 13:20 不定 1 10km以上 8 46 1030
14 12:50 不定 1 10km以上 8 46 1031 周辺でしゅう雨
14 12:20 静穏 0 10km以上 8 46 1031 周辺でしゅう雨
14 11:50 不定 1 10km以上 8 46 1031
14 11:20 2 10km以上 7 49 1031
14 10:50 南南東 2 10km以上 7 53 1031
14 10:20 南南西 2 10km以上 6 65 1031
14 09:50 2 10km以上 6 65 1031
14 09:20 南南東 1 10km以上 5 70 1031
14 08:50 南南東 1 10km以上 4 81 1031
14 08:20 不定 1 10km以上 2 93 1031
14 07:50 静穏 0 10km以上 1 93 1031
14 07:20 静穏 0 10km以上 1 86 1031
14 06:50 1 10km以上 1 86 1030
14 06:20 南南東 1 10km以上 1 86 1030
14 05:50 不定 1 10km以上 1 86 1031
14 05:20 東南東 2 10km以上 2 75 1031
14 04:50 南南東 2 10km以上 0 93 1031
14 04:20 不定 1 10km以上 0 86 1031
14 03:50 不定 1 10km以上 1 75 1031
14 03:20 静穏 0 10km以上 2 75 1031
14 02:50 南東 1 10km以上 2 87 1031
14 02:20 静穏 0 10km以上 3 70 1031
14 01:50 東北東 1 10km以上 4 60 1032
14 01:20 静穏 0 10km以上 4 60 1032
14 00:50 東北東 1 10km以上 5 56 1032
14 00:20 不定 1 10km以上 3 81 1032
13 23:50 東北東 1 10km以上 4 65 1032
13 23:20 北東 1 10km以上 4 65 1032
13 22:50 東北東 1 10km以上 5 52 1032
13 22:20 東北東 1 10km以上 6 49 1032
13 21:50 東北東 1 10km以上 6 52 1032
13 21:20 東北東 2 10km以上 6 52 1032
13 20:50 北東 3 10km以上 6 65 1032
13 20:20 北東 3 10km以上 7 53 1032 周辺でしゅう雨
13 19:50 2 10km以上 8 42 1031 周辺でしゅう雨
13 19:20 東南東 2 10km以上 8 46 1031
13 18:50 3 10km以上 9 46 1031
13 18:20 不定 1 10km以上 9 46 1031
13 17:50 静穏 0 10km以上 9 43 1032
13 17:20 不定 1 10km以上 8 39 1032
13 16:50 北北西 4 10km以上 8 46 1032
13 16:20 2 10km以上 8 46 1032
13 15:50 不定 2 10km以上 10 40 1032
13 15:20 不定 1 10km以上 9 40 1032
13 14:50 北北西 2 10km以上 8 37 1033
13 14:20 不定 1 10km以上 9 46 1033
13 13:50 北北西 2 10km以上 7 53 1033
13 13:20 静穏 0 10km以上 9 53 1033
13 12:50 西 2 10km以上 7 57 1033
13 12:20 不定 1 10km以上 7 61 1034
13 11:50 不定 1 10km以上 7 61 1034
13 11:20 2 10km以上 7 57 1034
13 10:50 北北東 3 10km以上 6 61 1034
13 10:20 西北西 3 10km以上 6 65 1034
13 09:50 不定 1 10km以上 5 75 1034
13 09:20 不定 1 10km以上 4 75 1033
13 08:50 南西 1 10km以上 2 87 1033
13 08:20 西南西 1 10km以上 1 86 1033
EBBR 150520Z 00000KT CAVOK M01/M01 Q1031 NOSIG
EBBR 150450Z 00000KT CAVOK M00/M01 Q1030 NOSIG
EBBR 150420Z 34001KT CAVOK M00/M01 Q1030 NOSIG
EBBR 150350Z 35002KT CAVOK M00/M01 Q1030 NOSIG
EBBR 150320Z 01003KT CAVOK M00/M02 Q1030 NOSIG
EBBR 150250Z 02003KT CAVOK 00/M01 Q1030 NOSIG
EBBR 150220Z 03003KT CAVOK 00/M01 Q1030 NOSIG
EBBR 150150Z 01003KT CAVOK 00/M01 Q1030 NOSIG
EBBR 150120Z 01003KT 9999 FEW033 00/M01 Q1030 NOSIG
EBBR 150050Z 36004KT CAVOK 01/M01 Q1030 NOSIG
EBBR 150020Z 36003KT CAVOK 01/M01 Q1030 NOSIG
EBBR 142350Z 34002KT CAVOK 01/M01 Q1031 NOSIG
EBBR 142320Z 36002KT CAVOK 01/M01 Q1031 NOSIG
EBBR 142250Z 04002KT CAVOK 02/M00 Q1031 NOSIG
EBBR 142220Z 01002KT CAVOK 02/M01 Q1031 NOSIG
EBBR 142150Z 01003KT CAVOK 02/M00 Q1031 NOSIG
EBBR 142120Z 02006KT CAVOK 02/00 Q1031 NOSIG
EBBR 142050Z 02008KT 9999 FEW037 05/00 Q1031 NOSIG
EBBR 142020Z 02008KT CAVOK 05/00 Q1030 NOSIG
EBBR 141950Z 02006KT CAVOK 05/M01 Q1030 NOSIG
EBBR 141920Z 02008KT CAVOK 05/M00 Q1030 NOSIG
EBBR 141850Z 02008KT CAVOK 06/M02 Q1030 NOSIG
EBBR 141820Z 36005KT CAVOK 06/M02 Q1029 NOSIG
EBBR 141750Z 01004KT 9999 FEW040 06/M00 Q1029 NOSIG
EBBR 141720Z 02008KT 9999 FEW040 07/M02 Q1029 NOSIG
EBBR 141650Z 02009KT 9999 FEW040 07/M01 Q1029 NOSIG
EBBR 141620Z 01007KT 9999 SCT035 07/M01 Q1029 NOSIG
EBBR 141550Z 02011KT 9999 SCT035 07/00 Q1030 NOSIG
EBBR 141520Z 04005KT 9999 VCSH SCT035 08/M01 Q1030 NOSIG
EBBR 141450Z 07008KT 040V110 9999 SCT049 08/M01 Q1030 NOSIG
EBBR 141420Z 05007KT 010V080 9999 VCSH SCT049 08/M02 Q1030 NOSIG
EBBR 141350Z 06003KT 360V110 9999 VCSH SCT049 08/M03 Q1030 NOSIG
EBBR 141320Z 07005KT 030V100 9999 VCSH SCT049 09/M04 Q1030 NOSIG
EBBR 141250Z 04006KT 9999 VCSH SCT049 08/M02 Q1030 NOSIG
EBBR 141220Z VRB01KT 9999 SCT049 10/M03 Q1030 NOSIG
EBBR 141150Z 30004KT 180V350 9999 SCT049 09/M04 Q1030 NOSIG
EBBR 141120Z VRB02KT 9999 SCT048 08/M03 Q1030 NOSIG
EBBR 141050Z VRB02KT 9999 VCSH SCT048 08/M03 Q1031 NOSIG
EBBR 141020Z 00000KT 9999 VCSH SCT044 08/M03 Q1031 NOSIG
EBBR 140950Z VRB02KT 9999 SCT044 08/M03 Q1031 NOSIG
EBBR 140920Z 17004KT 110V190 9999 FEW040 07/M03 Q1031 NOSIG
EBBR 140850Z 15003KT 130V200 9999 FEW036 07/M02 Q1031 NOSIG
EBBR 140820Z 20004KT CAVOK 06/M00 Q1031 NOSIG
EBBR 140750Z 18004KT CAVOK 06/M00 Q1031 NOSIG
EBBR 140720Z 15002KT CAVOK 05/M00 Q1031 NOSIG
EBBR 140650Z 16001KT CAVOK 04/01 Q1031 NOSIG
EBBR 140620Z VRB02KT CAVOK 02/01 Q1031 NOSIG
EBBR 140550Z 00000KT CAVOK 01/M00 Q1031 NOSIG
EBBR 140520Z 00000KT CAVOK 01/M01 Q1031 NOSIG
EBBR 140450Z 17002KT CAVOK 01/M01 Q1030 NOSIG
EBBR 140420Z 16002KT CAVOK 01/M01 Q1030 NOSIG
EBBR 140350Z VRB01KT CAVOK 01/M01 Q1031 NOSIG
EBBR 140320Z 11004KT CAVOK 02/M02 Q1031 NOSIG
EBBR 140250Z 15003KT CAVOK M00/M01 Q1031 NOSIG
EBBR 140220Z VRB01KT CAVOK 00/M02 Q1031 NOSIG
EBBR 140150Z VRB01KT CAVOK 01/M03 Q1031 NOSIG
EBBR 140120Z 00000KT CAVOK 02/M02 Q1031 NOSIG
EBBR 140050Z 14002KT CAVOK 02/M00 Q1031 NOSIG
EBBR 140020Z 00000KT CAVOK 03/M02 Q1031 NOSIG
EBBR 132350Z 07002KT CAVOK 04/M03 Q1032 NOSIG
EBBR 132320Z 00000KT CAVOK 04/M03 Q1032 NOSIG
EBBR 132250Z 06001KT CAVOK 05/M03 Q1032 NOSIG
EBBR 132220Z VRB01KT CAVOK 03/00 Q1032 NOSIG
EBBR 132150Z 06001KT CAVOK 04/M02 Q1032 NOSIG
EBBR 132120Z 05001KT CAVOK 04/M02 Q1032 NOSIG
EBBR 132050Z 06001KT CAVOK 05/M04 Q1032 NOSIG
EBBR 132020Z 06001KT CAVOK 06/M04 Q1032 NOSIG
EBBR 131950Z 07002KT CAVOK 06/M03 Q1032 NOSIG
EBBR 131920Z 07003KT CAVOK 06/M03 Q1032 NOSIG
EBBR 131850Z 04005KT CAVOK 06/00 Q1032 NOSIG
EBBR 131820Z 05005KT 9999 VCSH NSC 07/M02 Q1032 NOSIG
EBBR 131750Z 09003KT 9999 VCSH NSC 08/M04 Q1031 NOSIG
EBBR 131720Z 12004KT 080V140 CAVOK 08/M03 Q1031 NOSIG
EBBR 131650Z 08006KT CAVOK 09/M02 Q1031 NOSIG
EBBR 131620Z VRB01KT CAVOK 09/M02 Q1031 NOSIG
EBBR 131550Z 00000KT CAVOK 09/M03 Q1032 NOSIG
EBBR 131520Z VRB02KT 9999 SCT030 08/M05 Q1032 NOSIG
EBBR 131450Z 34007KT 310V010 9999 SCT030 08/M03 Q1032 NOSIG
EBBR 131420Z 01004KT 330V030 CAVOK 08/M03 Q1032 NOSIG
EBBR 131350Z VRB03KT 9999 SCT045 10/M03 Q1032 NOSIG
EBBR 131320Z VRB02KT 9999 SCT040 09/M04 Q1032 NOSIG
EBBR 131250Z 34004KT 310V070 9999 SCT040 08/M06 Q1033 NOSIG
EBBR 131220Z VRB01KT 9999 SCT040 09/M02 Q1033 NOSIG
EBBR 131150Z 33004KT 300V360 9999 SCT040 07/M02 Q1033 NOSIG
EBBR 131120Z 00000KT 9999 SCT040 09/00 Q1033 NOSIG
EBBR 131050Z 28004KT 230V330 9999 SCT034 07/M01 Q1033 NOSIG
EBBR 131020Z VRB02KT 9999 SCT034 07/M00 Q1034 NOSIG
EBBR 130950Z VRB02KT 9999 SCT034 07/M00 Q1034 NOSIG
EBBR 130920Z 36003KT 270V080 9999 SCT034 07/M01 Q1034 NOSIG
EBBR 130850Z 02005KT 320V060 9999 SCT030 06/M01 Q1034 NOSIG
EBBR 130820Z 30005KT 9999 SCT030 06/00 Q1034 NOSIG
EBBR 130750Z VRB01KT 9999 FEW028 05/01 Q1034 NOSIG
EBBR 130720Z VRB02KT CAVOK 04/00 Q1033 NOSIG
EBBR 130650Z 23002KT CAVOK 02/M00 Q1033 NOSIG
EBBR 130620Z 24002KT CAVOK 01/M01 Q1033 NOSIG